Time;durP1;ratioP1;P1;durP2;ratioP2;P2;SDS_P1;SDS_P2;PMS_P1;PMS_P2;Temp;Humidity;BMP_temperature;BMP_pressure;BME280_temperature;BME280_humidity;BME280_pressure;Samples;Min_cycle;Max_cycle;Signal;HPM_P1;HPM_P2
2023/10/13 00:02:05;;;;;;;26.38;12.48;;;;;;;;;;4984635;28;20046;-77
2023/10/13 00:04:35;;;;;;;26.15;12.23;;;;;;;;;;4993029;28;20418;-77
2023/10/13 00:07:02;;;;;;;25.52;12.10;;;;;;;;;;4995544;28;20038;-77
2023/10/13 00:09:37;;;;;;;25.77;12.55;;;;;;;;;;4984248;28;20038;-77
2023/10/13 00:12:13;;;;;;;23.52;11.85;;;;;;;;;;4983688;28;20080;-77
2023/10/13 00:14:41;;;;;;;28.27;13.07;;;;;;;;;;4984555;28;20354;-77
2023/10/13 00:17:07;;;;;;;26.30;14.13;;;;;;;;;;4984171;28;20046;-77
2023/10/13 00:19:44;;;;;;;25.25;11.70;;;;;;;;;;4983655;28;20038;-77
2023/10/13 00:22:10;;;;;;;27.85;12.20;;;;;;;;;;4982430;28;20057;-77
2023/10/13 00:24:42;;;;;;;24.90;11.57;;;;;;;;;;4983476;28;20034;-77
2023/10/13 00:27:33;;;;;;;22.98;12.30;;;;;;;;;;4983743;28;20041;-77
2023/10/13 00:30:17;;;;;;;26.13;11.60;;;;;;;;;;4983794;28;20114;-76
2023/10/13 00:32:45;;;;;;;24.92;11.75;;;;;;;;;;4983264;28;20034;-77
2023/10/13 00:35:57;;;;;;;24.23;11.98;;;;;;;;;;4983975;28;20154;-76
2023/10/13 00:37:57;;;;;;;24.13;11.43;;;;;;;;;;4977464;28;20252;-77
2023/10/13 00:42:55;;;;;;;21.92;11.57;;;;;;;;;;4987609;28;20128;-77
2023/10/13 00:45:21;;;;;;;20.02;10.80;;;;;;;;;;4985896;28;20042;-77
2023/10/13 00:47:56;;;;;;;26.38;11.55;;;;;;;;;;4987588;28;20034;-77
2023/10/13 00:50:23;;;;;;;26.25;11.75;;;;;;;;;;4986529;28;20354;-77
2023/10/13 00:52:50;;;;;;;24.30;10.82;;;;;;;;;;4985829;28;20093;-77
2023/10/13 00:55:18;;;;;;;24.98;10.98;;;;;;;;;;4985183;28;20387;-77
2023/10/13 00:57:46;;;;;;;23.33;11.63;;;;;;;;;;4990537;28;20469;-77
2023/10/13 01:00:28;;;;;;;20.40;10.27;;;;;;;;;;5005290;28;20165;-77
2023/10/13 01:02:57;;;;;;;20.45;10.57;;;;;;;;;;5005416;28;20029;-77
2023/10/13 01:05:25;;;;;;;22.30;10.60;;;;;;;;;;5006367;28;20754;-77
2023/10/13 01:07:54;;;;;;;23.05;11.02;;;;;;;;;;5004970;28;20443;-77
2023/10/13 01:10:25;;;;;;;25.08;10.48;;;;;;;;;;5006326;28;20210;-77
2023/10/13 01:12:52;;;;;;;22.58;10.38;;;;;;;;;;5006215;28;20038;-77
2023/10/13 01:15:20;;;;;;;19.25;10.25;;;;;;;;;;5006400;28;20145;-77
2023/10/13 01:17:46;;;;;;;20.25;9.55;;;;;;;;;;5007176;28;20030;-76
2023/10/13 01:20:21;;;;;;;20.35;10.00;;;;;;;;;;5006582;28;20026;-77
2023/10/13 01:22:55;;;;;;;20.38;10.00;;;;;;;;;;5006949;28;20099;-76
2023/10/13 01:25:27;;;;;;;23.27;9.93;;;;;;;;;;5015345;28;20068;-77
2023/10/13 01:27:52;;;;;;;19.45;10.30;;;;;;;;;;5018214;28;20034;-77
2023/10/13 01:30:22;;;;;;;20.75;9.57;;;;;;;;;;5005996;28;20116;-77
2023/10/13 01:32:50;;;;;;;21.92;10.13;;;;;;;;;;5005102;28;20113;-77
2023/10/13 01:35:19;;;;;;;16.33;9.30;;;;;;;;;;5006375;28;20860;-77
2023/10/13 01:37:45;;;;;;;18.85;9.18;;;;;;;;;;5005191;28;20585;-77
2023/10/13 01:40:18;;;;;;;24.70;9.77;;;;;;;;;;5006055;28;20587;-76
2023/10/13 01:42:45;;;;;;;20.20;9.75;;;;;;;;;;5006313;28;20060;-77
2023/10/13 01:45:14;;;;;;;19.23;8.85;;;;;;;;;;5003853;28;20029;-77
2023/10/13 01:47:39;;;;;;;20.50;8.90;;;;;;;;;;5005496;28;20026;-77
2023/10/13 01:50:14;;;;;;;16.52;8.38;;;;;;;;;;5005293;28;20044;-77
2023/10/13 01:52:41;;;;;;;17.75;8.65;;;;;;;;;;5005702;28;20042;-77
2023/10/13 01:55:10;;;;;;;17.20;8.05;;;;;;;;;;5005195;28;20049;-76
2023/10/13 01:57:35;;;;;;;19.67;9.70;;;;;;;;;;5003695;28;20347;-77
2023/10/13 02:00:10;;;;;;;19.02;8.98;;;;;;;;;;5005784;28;20036;-77
2023/10/13 02:02:38;;;;;;;17.15;7.93;;;;;;;;;;5005805;28;20034;-77
2023/10/13 02:05:03;;;;;;;18.75;9.00;;;;;;;;;;5005798;28;20088;-77
2023/10/13 02:07:34;;;;;;;20.85;9.48;;;;;;;;;;5005053;28;20065;-77
2023/10/13 02:10:04;;;;;;;15.55;8.65;;;;;;;;;;5004502;28;20046;-77
2023/10/13 02:12:36;;;;;;;23.05;9.40;;;;;;;;;;5005418;28;20034;-77
2023/10/13 02:15:04;;;;;;;18.98;8.90;;;;;;;;;;5004099;28;20029;-77
2023/10/13 02:17:39;;;;;;;19.38;9.73;;;;;;;;;;5004433;28;20040;-77
2023/10/13 02:20:09;;;;;;;23.98;9.43;;;;;;;;;;5005540;28;20038;-77
2023/10/13 02:22:36;;;;;;;18.67;8.98;;;;;;;;;;5003088;28;20531;-77
2023/10/13 02:25:05;;;;;;;19.23;9.13;;;;;;;;;;5005212;28;20068;-76
2023/10/13 02:27:40;;;;;;;20.20;9.15;;;;;;;;;;5005254;28;20060;-77
2023/10/13 02:30:12;;;;;;;21.75;8.82;;;;;;;;;;5005090;28;20025;-77
2023/10/13 02:32:40;;;;;;;21.67;8.57;;;;;;;;;;5005803;28;20026;-77
2023/10/13 02:35:08;;;;;;;17.80;8.27;;;;;;;;;;5002955;28;20092;-77
2023/10/13 02:37:35;;;;;;;19.35;8.70;;;;;;;;;;5003828;28;20030;-77
2023/10/13 02:40:01;;;;;;;20.65;8.50;;;;;;;;;;5005305;28;20046;-77
2023/10/13 02:42:26;;;;;;;22.23;8.93;;;;;;;;;;5004231;28;20108;-76
2023/10/13 02:44:55;;;;;;;19.60;9.18;;;;;;;;;;5010393;28;20239;-77
2023/10/13 02:47:23;;;;;;;19.73;8.38;;;;;;;;;;5017753;28;20034;-77
2023/10/13 02:49:49;;;;;;;16.05;7.88;;;;;;;;;;5011484;28;20045;-77
2023/10/13 02:52:14;;;;;;;15.45;7.78;;;;;;;;;;5004596;28;20068;-77
2023/10/13 02:54:47;;;;;;;18.15;9.13;;;;;;;;;;5004721;28;20593;-77
2023/10/13 02:57:15;;;;;;;15.43;7.65;;;;;;;;;;5004247;28;20053;-77
2023/10/13 02:59:48;;;;;;;17.45;8.10;;;;;;;;;;5004836;28;20024;-77
2023/10/13 03:02:25;;;;;;;14.57;7.78;;;;;;;;;;5003714;28;20125;-77
2023/10/13 03:05:13;;;;;;;18.40;8.13;;;;;;;;;;5003304;28;20456;-77
2023/10/13 03:07:42;;;;;;;18.73;7.72;;;;;;;;;;5003650;28;20444;-77
2023/10/13 03:10:12;;;;;;;17.85;7.57;;;;;;;;;;5003043;28;20512;-77
2023/10/13 03:12:38;;;;;;;24.33;8.40;;;;;;;;;;5003991;28;20595;-77
2023/10/13 03:17:45;;;;;;;15.00;7.53;;;;;;;;;;5005488;28;20096;-77
2023/10/13 03:20:13;;;;;;;17.08;7.28;;;;;;;;;;5003667;28;20030;-77
2023/10/13 03:22:38;;;;;;;17.33;7.28;;;;;;;;;;5002684;28;20065;-77
2023/10/13 03:25:06;;;;;;;18.13;7.20;;;;;;;;;;5002735;28;20076;-77
2023/10/13 03:30:35;;;;;;;14.10;6.78;;;;;;;;;;4970626;28;20041;-76
2023/10/13 03:33:06;;;;;;;17.07;6.70;;;;;;;;;;4999167;28;20061;-77
2023/10/13 03:35:42;;;;;;;19.95;6.88;;;;;;;;;;5005180;28;20279;-78
2023/10/13 03:38:16;;;;;;;13.88;5.88;;;;;;;;;;5003431;28;20037;-76
2023/10/13 03:40:48;;;;;;;13.75;6.65;;;;;;;;;;5002547;28;20050;-77
2023/10/13 03:43:16;;;;;;;16.08;6.97;;;;;;;;;;5002375;28;20128;-77
2023/10/13 03:45:48;;;;;;;15.40;6.50;;;;;;;;;;5003673;28;20144;-77
2023/10/13 03:48:28;;;;;;;20.57;7.17;;;;;;;;;;5002633;28;20064;-76
2023/10/13 03:51:03;;;;;;;18.65;7.30;;;;;;;;;;5004024;28;20026;-77
2023/10/13 03:53:33;;;;;;;16.80;6.78;;;;;;;;;;5004032;28;20112;-76
2023/10/13 03:56:12;;;;;;;15.15;5.95;;;;;;;;;;5003361;28;20046;-77
2023/10/13 03:58:41;;;;;;;13.50;6.22;;;;;;;;;;5003949;28;20072;-77
2023/10/13 04:01:09;;;;;;;14.93;6.78;;;;;;;;;;5004131;28;20088;-77
2023/10/13 04:03:36;;;;;;;15.13;6.65;;;;;;;;;;5003248;28;20512;-77
2023/10/13 04:06:08;;;;;;;16.50;6.72;;;;;;;;;;5009964;28;20110;-77
2023/10/13 04:16:36;;;;;;;13.80;6.10;;;;;;;;;;5007640;28;20044;-77
2023/10/13 04:32:28;;;;;;;15.32;6.40;;;;;;;;;;4988600;28;20314;-77
2023/10/13 04:35:18;;;;;;;13.10;5.60;;;;;;;;;;4986250;28;20038;-77
2023/10/13 04:40:17;;;;;;;13.52;6.25;;;;;;;;;;4987313;28;20077;-77
2023/10/13 04:42:58;;;;;;;18.45;6.63;;;;;;;;;;4987489;28;20548;-77
2023/10/13 04:50:45;;;;;;;10.70;5.05;;;;;;;;;;4987223;28;20041;-77
2023/10/13 04:53:34;;;;;;;13.88;6.40;;;;;;;;;;4986860;28;20054;-77
2023/10/13 06:28:41;;;;;;;13.73;5.30;;;;;;;;;;5002465;28;19924;-76
2023/10/13 06:31:08;;;;;;;10.20;4.78;;;;;;;;;;5000809;28;20034;-76
2023/10/13 06:33:42;;;;;;;17.27;5.47;;;;;;;;;;5004240;28;20113;-76
2023/10/13 06:36:09;;;;;;;15.20;5.82;;;;;;;;;;5003778;28;20095;-76
2023/10/13 06:38:38;;;;;;;15.00;5.30;;;;;;;;;;4998542;28;20022;-76
2023/10/13 06:41:07;;;;;;;11.23;4.88;;;;;;;;;;4981822;28;20579;-76
2023/10/13 06:43:40;;;;;;;14.00;5.47;;;;;;;;;;4984302;28;20468;-76
2023/10/13 06:46:14;;;;;;;15.13;5.60;;;;;;;;;;4986706;28;20038;-76
2023/10/13 06:48:41;;;;;;;12.93;5.63;;;;;;;;;;4995076;28;20045;-75
2023/10/13 06:51:22;;;;;;;17.48;5.70;;;;;;;;;;4996606;28;20038;-75
2023/10/13 06:53:48;;;;;;;12.88;6.00;;;;;;;;;;4986055;28;20037;-75
2023/10/13 06:56:27;;;;;;;15.68;5.78;;;;;;;;;;4984748;28;20612;-75
2023/10/13 06:59:02;;;;;;;13.55;5.68;;;;;;;;;;4999555;28;20068;-75
2023/10/13 07:01:28;;;;;;;14.80;5.75;;;;;;;;;;5001052;28;20037;-75
2023/10/13 07:03:53;;;;;;;13.30;5.90;;;;;;;;;;4996151;28;20033;-75
2023/10/13 07:06:22;;;;;;;12.93;5.78;;;;;;;;;;5000822;28;20037;-76
2023/10/13 07:08:54;;;;;;;12.48;5.93;;;;;;;;;;4991208;28;20060;-76
2023/10/13 07:11:34;;;;;;;14.68;5.78;;;;;;;;;;4981820;28;20044;-76
2023/10/13 07:14:10;;;;;;;12.77;5.85;;;;;;;;;;4984625;28;20173;-75
2023/10/13 07:17:00;;;;;;;24.27;10.20;;;;;;;;;;4984303;28;20077;-76
2023/10/13 07:19:29;;;;;;;18.60;8.45;;;;;;;;;;4982680;28;20046;-75
2023/10/13 07:21:59;;;;;;;16.63;7.95;;;;;;;;;;4983863;28;20163;-75
2023/10/13 07:24:31;;;;;;;18.75;9.43;;;;;;;;;;4983932;28;20544;-75
2023/10/13 07:27:05;;;;;;;21.00;7.20;;;;;;;;;;4983519;28;20030;-75
2023/10/13 07:29:33;;;;;;;16.25;6.15;;;;;;;;;;4999141;28;20062;-75
2023/10/13 07:32:02;;;;;;;15.50;5.82;;;;;;;;;;4988073;28;20314;-75
2023/10/13 07:34:35;;;;;;;15.27;7.35;;;;;;;;;;4993956;28;20043;-75
2023/10/13 07:37:01;;;;;;;19.85;7.35;;;;;;;;;;4999602;28;20046;-76
2023/10/13 07:39:33;;;;;;;13.38;6.75;;;;;;;;;;4983052;28;20030;-75
2023/10/13 07:42:08;;;;;;;12.77;5.78;;;;;;;;;;4990774;28;20034;-75
2023/10/13 07:44:34;;;;;;;10.82;5.78;;;;;;;;;;5004160;28;20026;-75
2023/10/13 07:47:07;;;;;;;12.68;6.63;;;;;;;;;;5003232;28;20042;-76
2023/10/13 07:49:37;;;;;;;10.80;5.78;;;;;;;;;;5007535;28;20037;-75
2023/10/13 07:52:23;;;;;;;14.68;5.70;;;;;;;;;;5008269;28;20137;-76
2023/10/13 07:55:11;;;;;;;17.10;6.60;;;;;;;;;;5007528;28;20563;-76
2023/10/13 07:57:54;;;;;;;13.95;5.90;;;;;;;;;;5017801;28;20553;-76
2023/10/13 08:05:55;;;;;;;12.77;5.57;;;;;;;;;;4989876;28;20049;-76
2023/10/13 08:08:22;;;;;;;13.88;6.88;;;;;;;;;;4994086;28;20034;-77
2023/10/13 08:10:48;;;;;;;13.13;4.32;;;;;;;;;;5000930;28;20050;-76
2023/10/13 08:13:14;;;;;;;13.55;5.38;;;;;;;;;;4994350;28;20046;-77
2023/10/13 08:15:49;;;;;;;13.20;5.47;;;;;;;;;;4986764;28;20432;-77
2023/10/13 08:18:19;;;;;;;17.88;5.85;;;;;;;;;;4986883;28;20319;-76
2023/10/13 08:20:45;;;;;;;11.38;5.38;;;;;;;;;;4996830;28;20507;-76
2023/10/13 08:23:13;;;;;;;11.05;5.72;;;;;;;;;;4999276;28;20042;-76
2023/10/13 08:31:26;;;;;;;10.98;5.45;;;;;;;;;;5005477;28;20076;-76
2023/10/13 08:33:59;;;;;;;13.38;5.80;;;;;;;;;;5007734;28;20049;-76
2023/10/13 08:36:27;;;;;;;18.88;5.53;;;;;;;;;;5007344;28;20030;-77
2023/10/13 08:38:55;;;;;;;13.75;6.00;;;;;;;;;;5007832;28;20050;-76
2023/10/13 08:43:50;;;;;;;14.02;5.90;;;;;;;;;;5002253;28;20420;-75
2023/10/13 08:46:29;;;;;;;12.93;5.53;;;;;;;;;;5005715;28;20041;-77
2023/10/13 08:49:17;;;;;;;8.63;4.88;;;;;;;;;;5007227;28;20065;-77
2023/10/13 08:51:43;;;;;;;11.70;5.80;;;;;;;;;;4989973;28;20320;-77
2023/10/13 08:54:33;;;;;;;16.25;5.90;;;;;;;;;;4985703;28;20038;-77
2023/10/13 08:57:05;;;;;;;16.73;5.93;;;;;;;;;;4985303;28;20138;-77
2023/10/13 08:59:38;;;;;;;12.63;6.40;;;;;;;;;;4984248;28;20567;-78
2023/10/13 09:02:17;;;;;;;13.35;5.68;;;;;;;;;;4994688;28;20030;-78
2023/10/13 09:04:47;;;;;;;16.00;6.40;;;;;;;;;;5004888;28;20042;-78
2023/10/13 09:07:15;;;;;;;13.63;5.57;;;;;;;;;;5006381;28;20066;-77
2023/10/13 09:12:14;;;;;;;12.70;5.75;;;;;;;;;;5006233;28;20056;-78
2023/10/13 09:14:45;;;;;;;19.45;6.32;;;;;;;;;;5007047;28;20026;-78
2023/10/13 09:19:49;;;;;;;12.48;6.78;;;;;;;;;;5006320;28;20610;-77
2023/10/13 09:22:35;;;;;;;18.58;6.65;;;;;;;;;;5006161;28;20042;-77
2023/10/13 09:25:02;;;;;;;11.38;6.05;;;;;;;;;;5005421;28;20037;-77
2023/10/13 09:27:29;;;;;;;11.40;6.20;;;;;;;;;;5006993;28;20034;-77
2023/10/13 09:30:09;;;;;;;14.52;5.78;;;;;;;;;;5015835;28;20076;-77
2023/10/13 09:32:50;;;;;;;12.82;6.32;;;;;;;;;;5016701;28;20092;-77
2023/10/13 09:35:18;;;;;;;16.45;6.22;;;;;;;;;;5004613;28;20120;-77
2023/10/13 09:37:47;;;;;;;12.68;5.70;;;;;;;;;;5004522;28;20029;-77
2023/10/13 09:42:55;;;;;;;18.38;6.57;;;;;;;;;;5005633;28;20200;-77
2023/10/13 09:45:27;;;;;;;14.80;6.15;;;;;;;;;;5004346;28;20116;-77
2023/10/13 09:47:57;;;;;;;15.63;6.03;;;;;;;;;;5004400;28;20053;-77
2023/10/13 09:50:26;;;;;;;15.13;6.15;;;;;;;;;;5004894;28;20042;-77
2023/10/13 09:52:53;;;;;;;13.73;6.38;;;;;;;;;;5003235;28;20230;-77
2023/10/13 09:55:35;;;;;;;12.85;6.18;;;;;;;;;;5004951;28;20117;-78
2023/10/13 09:58:10;;;;;;;25.95;6.63;;;;;;;;;;5004106;28;20041;-78
2023/10/13 10:06:05;;;;;;;17.55;5.60;;;;;;;;;;5006045;28;20057;-78
2023/10/13 10:08:34;;;;;;;20.48;6.00;;;;;;;;;;5005721;28;20528;-77
2023/10/13 10:11:25;;;;;;;13.43;5.68;;;;;;;;;;5003014;28;20041;-78
2023/10/13 10:13:57;;;;;;;14.02;6.53;;;;;;;;;;5005469;28;20070;-77
2023/10/13 10:16:48;;;;;;;13.98;5.57;;;;;;;;;;5003177;28;20038;-77
2023/10/13 10:19:14;;;;;;;14.40;5.18;;;;;;;;;;5001601;28;20523;-77
2023/10/13 10:21:41;;;;;;;15.23;5.93;;;;;;;;;;5003667;28;20061;-77
2023/10/13 10:24:36;;;;;;;21.45;6.22;;;;;;;;;;5003707;28;20452;-77
2023/10/13 10:27:04;;;;;;;20.90;6.38;;;;;;;;;;4997303;28;20042;-77
2023/10/13 10:29:32;;;;;;;17.40;5.55;;;;;;;;;;5005416;28;20041;-77
2023/10/13 10:31:57;;;;;;;18.52;5.78;;;;;;;;;;5004147;28;20091;-78
2023/10/13 10:34:32;;;;;;;17.45;5.63;;;;;;;;;;5003585;28;20050;-77
2023/10/13 10:36:58;;;;;;;20.05;6.85;;;;;;;;;;5002453;28;20037;-77
2023/10/13 10:39:45;;;;;;;18.52;5.78;;;;;;;;;;5004525;28;20460;-78
2023/10/13 10:42:32;;;;;;;14.50;6.30;;;;;;;;;;5004672;28;20054;-77
2023/10/13 10:45:05;;;;;;;19.02;5.40;;;;;;;;;;5004956;28;20104;-78
2023/10/13 10:47:31;;;;;;;11.77;5.70;;;;;;;;;;5007451;28;20044;-77
2023/10/13 10:50:07;;;;;;;16.35;6.03;;;;;;;;;;5014367;28;20037;-77
2023/10/13 10:52:36;;;;;;;18.15;6.35;;;;;;;;;;5016612;28;20061;-77
2023/10/13 10:55:07;;;;;;;14.45;6.07;;;;;;;;;;5004799;28;20041;-77
2023/10/13 10:57:37;;;;;;;15.43;5.85;;;;;;;;;;4996080;28;20050;-77
2023/10/13 11:00:14;;;;;;;15.90;6.10;;;;;;;;;;4986181;28;20054;-77
2023/10/13 11:02:40;;;;;;;15.52;5.63;;;;;;;;;;4984316;28;20030;-76
2023/10/13 11:05:09;;;;;;;19.33;6.57;;;;;;;;;;4986328;28;20663;-77
2023/10/13 11:07:35;;;;;;;15.40;5.88;;;;;;;;;;4986229;28;20038;-76
2023/10/13 11:10:20;;;;;;;13.35;5.38;;;;;;;;;;4985522;28;20082;-77
2023/10/13 11:13:50;;;;;;;13.40;5.70;;;;;;;;;;4983637;28;20054;-77
2023/10/13 11:15:48;;;;;;;16.65;5.70;;;;;;;;;;4977037;28;20042;-77
2023/10/13 11:18:20;;;;;;;14.48;5.80;;;;;;;;;;4984815;28;20061;-77
2023/10/13 11:20:46;;;;;;;17.98;6.07;;;;;;;;;;4984184;28;20037;-77
2023/10/13 11:23:15;;;;;;;13.60;5.80;;;;;;;;;;4984315;28;20786;-77
2023/10/13 11:25:44;;;;;;;15.65;5.82;;;;;;;;;;4983846;28;20102;-77
2023/10/13 11:28:17;;;;;;;14.73;5.53;;;;;;;;;;4987644;28;20038;-76
2023/10/13 11:30:56;;;;;;;17.42;5.25;;;;;;;;;;4995971;28;20342;-76
2023/10/13 11:33:26;;;;;;;14.65;6.30;;;;;;;;;;4991466;28;20042;-77
2023/10/13 11:38:42;;;;;;;13.25;5.90;;;;;;;;;;4984591;28;20096;-77
2023/10/13 11:41:18;;;;;;;14.13;5.22;;;;;;;;;;4984901;28;20035;-76
2023/10/13 11:46:48;;;;;;;;;;;;;;;;;;4989866;28;20058;-76
2023/10/13 11:51:49;;;;;;;10.45;5.32;;;;;;;;;;5001471;28;20034;-76
2023/10/13 11:54:15;;;;;;;15.15;5.70;;;;;;;;;;5004843;28;20761;-76
2023/10/13 11:56:41;;;;;;;14.57;5.95;;;;;;;;;;5004801;28;20058;-77
2023/10/13 11:59:15;;;;;;;10.57;5.43;;;;;;;;;;4986805;28;20043;-74
2023/10/13 12:12:27;;;;;;;13.57;5.53;;;;;;;;;;5001013;28;20101;-74
2023/10/13 12:14:56;;;;;;;15.13;5.75;;;;;;;;;;5009615;28;20161;-74
2023/10/13 12:17:34;;;;;;;17.00;5.40;;;;;;;;;;4985729;28;20070;-75
2023/10/13 12:20:10;;;;;;;11.35;5.78;;;;;;;;;;4984066;28;20026;-73
2023/10/13 12:22:42;;;;;;;12.07;5.10;;;;;;;;;;4983530;28;20595;-74
2023/10/13 12:25:34;;;;;;;12.20;5.57;;;;;;;;;;4985337;28;20049;-74
2023/10/13 12:28:12;;;;;;;10.35;5.90;;;;;;;;;;4983329;28;20050;-75
2023/10/13 12:30:54;;;;;;;17.00;5.72;;;;;;;;;;4995870;28;20100;-74
2023/10/13 12:33:36;;;;;;;15.82;5.60;;;;;;;;;;5005696;28;20041;-74
2023/10/13 12:36:30;;;;;;;17.08;5.28;;;;;;;;;;5006993;28;20030;-74
2023/10/13 12:52:16;;;;;;;11.88;5.25;;;;;;;;;;4987249;28;20034;-74
2023/10/13 12:54:58;;;;;;;9.73;5.30;;;;;;;;;;4987887;28;20092;-74
2023/10/13 12:57:24;;;;;;;19.83;5.53;;;;;;;;;;4989969;28;20104;-74
2023/10/13 12:59:53;;;;;;;11.25;5.55;;;;;;;;;;5008500;28;20026;-74
2023/10/13 13:02:24;;;;;;;14.38;5.53;;;;;;;;;;5007923;28;20504;-74
2023/10/13 13:05:06;;;;;;;15.68;5.25;;;;;;;;;;5004518;28;20034;-74
2023/10/13 13:07:43;;;;;;;18.33;5.60;;;;;;;;;;5007185;28;20037;-74
2023/10/13 13:10:11;;;;;;;11.95;5.45;;;;;;;;;;5005753;28;20412;-74
2023/10/13 13:12:36;;;;;;;12.90;5.55;;;;;;;;;;5006366;28;20561;-74
2023/10/13 13:15:08;;;;;;;9.85;5.20;;;;;;;;;;5007657;28;20496;-74
2023/10/13 13:17:34;;;;;;;9.88;5.07;;;;;;;;;;5006487;28;20071;-75
2023/10/13 13:19:59;;;;;;;11.95;5.57;;;;;;;;;;5007640;28;20038;-74
2023/10/13 13:22:25;;;;;;;17.83;5.65;;;;;;;;;;5007425;28;20104;-74
2023/10/13 13:24:50;;;;;;;11.95;5.80;;;;;;;;;;5007761;28;20136;-74
2023/10/13 13:27:22;;;;;;;15.35;6.00;;;;;;;;;;5005023;28;20037;-74
2023/10/13 13:29:47;;;;;;;11.13;5.28;;;;;;;;;;5011739;28;20030;-74
2023/10/13 13:32:23;;;;;;;11.93;5.55;;;;;;;;;;5017841;28;20061;-74
2023/10/13 13:35:05;;;;;;;16.77;5.53;;;;;;;;;;5008343;28;20042;-74
2023/10/13 13:37:34;;;;;;;15.88;5.65;;;;;;;;;;5003081;28;20512;-74
2023/10/13 13:40:22;;;;;;;9.90;5.00;;;;;;;;;;5004703;28;20045;-74
2023/10/13 13:42:45;;;;;;;11.60;5.63;;;;;;;;;;5001817;28;20124;-74
2023/10/13 13:45:31;;;;;;;10.43;5.50;;;;;;;;;;5003500;28;20137;-74
2023/10/13 13:47:57;;;;;;;9.55;5.47;;;;;;;;;;5004478;28;20554;-74
2023/10/13 13:50:26;;;;;;;12.68;5.45;;;;;;;;;;5004037;28;20037;-74
2023/10/13 13:52:55;;;;;;;15.98;5.53;;;;;;;;;;5003582;28;20045;-74
2023/10/13 13:55:21;;;;;;;11.93;5.30;;;;;;;;;;5004100;28;20053;-74
2023/10/13 13:57:50;;;;;;;12.18;5.63;;;;;;;;;;5003510;28;20049;-74
2023/10/13 14:00:30;;;;;;;11.05;6.10;;;;;;;;;;5003791;28;20030;-74
2023/10/13 14:02:55;;;;;;;13.57;5.40;;;;;;;;;;5004762;28;20091;-74
2023/10/13 14:05:20;;;;;;;13.20;5.50;;;;;;;;;;5003566;28;20041;-74
2023/10/13 14:07:48;;;;;;;15.10;5.90;;;;;;;;;;5003734;28;20157;-74
2023/10/13 14:10:31;;;;;;;12.68;5.20;;;;;;;;;;5002934;28;20054;-74
2023/10/13 14:13:06;;;;;;;12.90;5.32;;;;;;;;;;5003287;28;20068;-74
2023/10/13 14:15:39;;;;;;;9.35;5.22;;;;;;;;;;5004210;28;20064;-74
2023/10/13 14:18:06;;;;;;;9.55;5.15;;;;;;;;;;5002344;28;20037;-74
2023/10/13 14:20:32;;;;;;;13.05;5.32;;;;;;;;;;4994487;28;20025;-74
2023/10/13 14:22:58;;;;;;;11.88;5.78;;;;;;;;;;5000094;28;20832;-74
2023/10/13 14:25:28;;;;;;;10.73;5.35;;;;;;;;;;5003907;28;20046;-74
2023/10/13 14:27:54;;;;;;;11.13;5.45;;;;;;;;;;5003957;28;20052;-74
2023/10/13 14:30:19;;;;;;;13.48;5.40;;;;;;;;;;5003258;28;20042;-74
2023/10/13 14:32:45;;;;;;;11.98;5.53;;;;;;;;;;5004326;28;20125;-74
2023/10/13 14:35:16;;;;;;;11.32;5.60;;;;;;;;;;5003514;28;20033;-74
2023/10/13 14:37:42;;;;;;;11.88;5.80;;;;;;;;;;5004143;28;20053;-74
2023/10/13 14:40:21;;;;;;;15.35;5.93;;;;;;;;;;5004624;28;20038;-74
2023/10/13 14:42:47;;;;;;;11.02;5.65;;;;;;;;;;5004369;28;20489;-74
2023/10/13 14:45:13;;;;;;;11.32;5.63;;;;;;;;;;5005498;28;20041;-74
2023/10/13 14:47:39;;;;;;;10.20;5.18;;;;;;;;;;5007803;28;20033;-74
2023/10/13 14:50:06;;;;;;;15.82;6.57;;;;;;;;;;5012490;28;20026;-74
2023/10/13 14:52:31;;;;;;;16.27;5.97;;;;;;;;;;5019661;28;20057;-74
2023/10/13 14:54:57;;;;;;;13.73;5.68;;;;;;;;;;5015424;28;20677;-74
2023/10/13 14:57:27;;;;;;;8.63;4.85;;;;;;;;;;5004154;28;20050;-74
2023/10/13 14:59:55;;;;;;;11.10;5.30;;;;;;;;;;5003911;28;20480;-74
2023/10/13 15:02:21;;;;;;;11.15;5.40;;;;;;;;;;4988754;28;20117;-74
2023/10/13 15:04:48;;;;;;;9.30;5.35;;;;;;;;;;4984993;28;20133;-74
2023/10/13 15:07:18;;;;;;;12.27;5.85;;;;;;;;;;4983506;28;20484;-74
2023/10/13 15:09:44;;;;;;;11.25;5.72;;;;;;;;;;4982503;28;20670;-74
2023/10/13 15:12:10;;;;;;;14.95;6.82;;;;;;;;;;4983218;28;20038;-74
2023/10/13 15:14:42;;;;;;;19.75;8.98;;;;;;;;;;4975240;28;20410;-74
2023/10/13 15:17:09;;;;;;;22.75;9.63;;;;;;;;;;4999987;28;20669;-74
2023/10/13 15:19:38;;;;;;;15.73;8.05;;;;;;;;;;5002537;28;20034;-74
2023/10/13 15:22:06;;;;;;;22.27;10.02;;;;;;;;;;5000289;28;20050;-74
2023/10/13 15:24:36;;;;;;;17.92;7.38;;;;;;;;;;4989336;28;20045;-74
2023/10/13 15:27:02;;;;;;;15.63;7.07;;;;;;;;;;4997878;28;20042;-74
2023/10/13 15:29:35;;;;;;;13.10;6.15;;;;;;;;;;5000447;28;20044;-74
2023/10/13 15:34:29;;;;;;;12.73;6.00;;;;;;;;;;4982520;28;20068;-74
2023/10/13 15:36:56;;;;;;;11.23;5.53;;;;;;;;;;4993725;28;20517;-76
2023/10/13 15:39:31;;;;;;;9.90;5.40;;;;;;;;;;4999543;28;20029;-76
2023/10/13 15:41:59;;;;;;;21.85;6.20;;;;;;;;;;4998738;28;20049;-77
2023/10/13 15:44:31;;;;;;;17.88;5.95;;;;;;;;;;4993996;28;20029;-76
2023/10/13 15:46:59;;;;;;;12.82;5.72;;;;;;;;;;4995059;28;20132;-77
2023/10/13 15:49:27;;;;;;;13.77;5.97;;;;;;;;;;4982763;28;20046;-76
2023/10/13 15:51:56;;;;;;;12.98;5.40;;;;;;;;;;4983849;28;20050;-76
2023/10/13 15:54:22;;;;;;;15.18;5.55;;;;;;;;;;4990047;28;20428;-76
2023/10/13 15:56:49;;;;;;;13.27;5.75;;;;;;;;;;5001536;28;20046;-76
2023/10/13 15:59:15;;;;;;;14.05;5.80;;;;;;;;;;5001993;28;20030;-77
2023/10/13 16:01:41;;;;;;;11.38;6.03;;;;;;;;;;5002619;28;20045;-77
2023/10/13 16:04:10;;;;;;;12.93;6.00;;;;;;;;;;5002176;28;20049;-77
2023/10/13 16:06:40;;;;;;;11.52;5.40;;;;;;;;;;5004503;28;20030;-76
2023/10/13 16:09:13;;;;;;;13.45;5.68;;;;;;;;;;4994288;28;20041;-76
2023/10/13 16:11:42;;;;;;;15.38;5.75;;;;;;;;;;5016324;28;20461;-76
2023/10/13 16:14:15;;;;;;;17.35;6.15;;;;;;;;;;5014103;28;20034;-76
2023/10/13 16:16:44;;;;;;;15.05;6.07;;;;;;;;;;5003995;28;20049;-77
2023/10/13 16:19:10;;;;;;;12.18;6.00;;;;;;;;;;5002021;28;20037;-76
2023/10/13 16:21:39;;;;;;;11.60;6.13;;;;;;;;;;5001293;28;20033;-76
2023/10/13 16:24:05;;;;;;;15.65;6.28;;;;;;;;;;5000955;28;20042;-76
2023/10/13 16:26:31;;;;;;;13.98;6.13;;;;;;;;;;5004753;28;20040;-76
2023/10/13 16:28:58;;;;;;;15.68;6.35;;;;;;;;;;5003674;28;20029;-76
2023/10/13 16:31:27;;;;;;;11.60;5.38;;;;;;;;;;5005839;28;20417;-76
2023/10/13 16:33:58;;;;;;;14.18;6.40;;;;;;;;;;4995597;28;20053;-76
2023/10/13 16:36:27;;;;;;;12.82;6.07;;;;;;;;;;4984642;28;20038;-76
2023/10/13 16:38:52;;;;;;;14.15;6.85;;;;;;;;;;4993353;28;20563;-77
2023/10/13 16:41:22;;;;;;;11.43;5.65;;;;;;;;;;5003712;28;20638;-76
2023/10/13 16:43:47;;;;;;;13.15;6.13;;;;;;;;;;5006057;28;20034;-76
2023/10/13 16:46:12;;;;;;;14.55;6.93;;;;;;;;;;5002026;28;20123;-76
2023/10/13 16:48:38;;;;;;;12.43;6.00;;;;;;;;;;5004590;28;20699;-76
2023/10/13 16:51:05;;;;;;;16.73;6.30;;;;;;;;;;4994334;28;20421;-76
2023/10/13 16:53:32;;;;;;;15.13;5.80;;;;;;;;;;4990360;28;20026;-76
2023/10/13 16:56:03;;;;;;;12.40;5.93;;;;;;;;;;4984472;28;20050;-76
2023/10/13 16:58:30;;;;;;;10.75;6.00;;;;;;;;;;4998085;28;20038;-76
2023/10/13 17:00:56;;;;;;;11.75;5.68;;;;;;;;;;5006858;28;20042;-77
2023/10/13 17:03:30;;;;;;;13.65;5.63;;;;;;;;;;5004844;28;20042;-76
2023/10/13 17:05:57;;;;;;;11.50;5.45;;;;;;;;;;5007178;28;20045;-76
2023/10/13 17:08:29;;;;;;;17.17;6.97;;;;;;;;;;5004209;28;20030;-76
2023/10/13 17:11:06;;;;;;;14.98;6.38;;;;;;;;;;5001730;28;20022;-76
2023/10/13 17:13:32;;;;;;;19.08;6.25;;;;;;;;;;4998882;28;20030;-76
2023/10/13 17:15:59;;;;;;;12.40;5.55;;;;;;;;;;5006479;28;20038;-76
2023/10/13 17:18:27;;;;;;;11.85;6.20;;;;;;;;;;5005802;28;20060;-76
2023/10/13 17:20:53;;;;;;;14.30;5.70;;;;;;;;;;5005367;28;20042;-76
2023/10/13 17:23:19;;;;;;;13.20;6.20;;;;;;;;;;5006961;28;20114;-76
2023/10/13 17:25:44;;;;;;;18.92;6.38;;;;;;;;;;5003126;28;20109;-76
2023/10/13 17:28:15;;;;;;;16.63;5.93;;;;;;;;;;4997715;28;20468;-76
2023/10/13 17:30:43;;;;;;;16.90;6.18;;;;;;;;;;5004266;28;20034;-76
2023/10/13 17:33:11;;;;;;;13.88;5.90;;;;;;;;;;5011413;28;20496;-76
2023/10/13 17:35:39;;;;;;;17.67;5.72;;;;;;;;;;5010678;28;20524;-76
2023/10/13 17:38:05;;;;;;;15.90;5.68;;;;;;;;;;4994760;28;20049;-76
2023/10/13 17:40:30;;;;;;;14.95;5.60;;;;;;;;;;5007224;28;20049;-76
2023/10/13 17:42:56;;;;;;;16.90;5.95;;;;;;;;;;5006120;28;20150;-76
2023/10/13 17:45:21;;;;;;;11.35;5.40;;;;;;;;;;5006097;28;20741;-76
2023/10/13 17:47:47;;;;;;;13.32;5.43;;;;;;;;;;4989843;28;20041;-76
2023/10/13 17:50:16;;;;;;;11.00;5.43;;;;;;;;;;5005317;28;20397;-75
2023/10/13 17:52:42;;;;;;;11.32;5.03;;;;;;;;;;5001897;28;20041;-76
2023/10/13 17:55:09;;;;;;;14.80;5.95;;;;;;;;;;5011717;28;20060;-75
2023/10/13 17:57:35;;;;;;;15.48;6.90;;;;;;;;;;5003649;28;20045;-76
2023/10/13 18:00:02;;;;;;;19.20;5.60;;;;;;;;;;5004343;28;20060;-75
2023/10/13 18:02:28;;;;;;;12.30;7.00;;;;;;;;;;5005044;28;20114;-75